createdAt,value
2023-05-02T00:01:57.146Z,60.91
2023-05-02T00:04:00.154Z,61.84
2023-05-02T00:06:03.150Z,60.93
2023-05-02T00:08:06.356Z,61.16
2023-05-02T00:10:10.104Z,61.55
2023-05-02T00:12:12.882Z,61.72
2023-05-02T00:14:17.039Z,61.45
2023-05-02T00:16:19.944Z,61.90
2023-05-02T00:18:24.114Z,61.71
2023-05-02T00:20:27.122Z,62.21
2023-05-02T00:22:30.020Z,61.73
2023-05-02T00:24:33.079Z,62.21
2023-05-02T00:26:35.871Z,61.86
2023-05-02T00:28:38.739Z,61.41
2023-05-02T00:30:45.303Z,61.74
2023-05-02T00:32:48.304Z,61.95
2023-05-02T00:34:51.126Z,61.61
2023-05-02T00:36:53.929Z,61.67
2023-05-02T00:38:56.931Z,61.17
2023-05-02T00:40:59.735Z,61.03
2023-05-02T00:43:02.667Z,60.36
2023-05-02T00:45:06.865Z,60.85
2023-05-02T00:47:11.412Z,60.91
2023-05-02T00:49:14.287Z,60.78
2023-05-02T00:51:17.104Z,60.92
2023-05-02T00:53:20.101Z,61.05
2023-05-02T00:55:23.632Z,60.92
2023-05-02T00:57:26.738Z,60.83
2023-05-02T00:59:29.603Z,60.50
2023-05-02T01:01:42.595Z,60.77
2023-05-02T01:04:04.745Z,61.12
2023-05-02T01:06:20.469Z,60.53
2023-05-02T01:08:35.436Z,60.88
2023-05-02T01:10:48.452Z,61.59
2023-05-02T01:12:59.387Z,62.42
2023-05-02T01:15:06.922Z,62.69
2023-05-02T01:17:13.854Z,63.32
2023-05-02T01:19:26.749Z,63.68
2023-05-02T01:21:29.911Z,63.15
2023-05-02T01:23:42.000Z,62.71
2023-05-02T01:26:00.140Z,62.76
2023-05-02T01:28:17.799Z,62.25
2023-05-02T01:30:23.481Z,62.80
2023-05-02T01:32:28.142Z,62.76
2023-05-02T01:34:32.252Z,63.08
2023-05-02T01:36:37.486Z,63.06
2023-05-02T01:38:43.537Z,62.96
2023-05-02T01:40:48.599Z,62.97
2023-05-02T01:42:55.270Z,62.75
2023-05-02T01:45:00.871Z,62.62
2023-05-02T01:47:08.613Z,62.76
2023-05-02T01:49:11.764Z,62.79
2023-05-02T01:51:18.831Z,62.43
2023-05-02T01:53:22.549Z,62.34
2023-05-02T01:55:26.801Z,62.34
2023-05-02T01:57:29.986Z,62.41
2023-05-02T01:59:35.264Z,62.37
2023-05-02T02:01:39.724Z,62.00
2023-05-02T02:03:44.865Z,61.94
2023-05-02T02:05:50.924Z,62.30
2023-05-02T02:07:53.910Z,62.14
2023-05-02T02:09:56.840Z,62.20
2023-05-02T02:12:06.437Z,62.09
2023-05-02T02:14:16.062Z,62.44
2023-05-02T02:16:25.592Z,62.50
2023-05-02T02:18:30.306Z,62.63
2023-05-02T02:20:34.417Z,63.05
2023-05-02T02:22:40.858Z,63.14
2023-05-02T02:24:46.836Z,62.91
2023-05-02T02:26:49.734Z,62.81
2023-05-02T02:28:52.587Z,62.73
2023-05-02T02:30:56.797Z,62.30
2023-05-02T02:32:59.660Z,62.48
2023-05-02T02:35:03.270Z,62.66
2023-05-02T02:37:12.775Z,62.80
2023-05-02T02:39:26.500Z,62.98
2023-05-02T02:41:34.081Z,62.57
2023-05-02T02:43:45.144Z,63.02
2023-05-02T02:45:56.799Z,62.93
2023-05-02T02:48:08.212Z,63.46
2023-05-02T02:50:17.907Z,63.03
2023-05-02T02:52:33.100Z,63.04
2023-05-02T02:54:39.844Z,63.23
2023-05-02T02:56:46.754Z,62.98
2023-05-02T02:58:56.242Z,63.14
2023-05-02T03:01:03.892Z,63.16
2023-05-02T03:03:08.632Z,62.97
2023-05-02T03:05:12.082Z,63.66
2023-05-02T03:07:15.200Z,63.59
2023-05-02T03:09:19.820Z,63.65
2023-05-02T03:11:24.917Z,63.83
2023-05-02T03:13:27.810Z,63.50
2023-05-02T03:16:01.775Z,63.85
2023-05-02T03:18:06.383Z,63.69
2023-05-02T03:20:10.396Z,63.81
2023-05-02T03:22:13.214Z,63.78
2023-05-02T03:24:18.910Z,63.63
2023-05-02T03:26:23.392Z,63.73
2023-05-02T03:28:26.719Z,63.86
2023-05-02T03:30:29.947Z,64.46
2023-05-02T03:32:33.079Z,64.03
2023-05-02T03:34:35.979Z,63.47
2023-05-02T03:36:38.757Z,63.21
2023-05-02T03:38:41.594Z,63.38
2023-05-02T03:40:48.219Z,63.38
2023-05-02T03:42:52.459Z,63.50
2023-05-02T03:45:01.876Z,63.45
2023-05-02T03:47:04.895Z,63.28
2023-05-02T03:49:13.724Z,63.64
2023-05-02T03:51:19.428Z,64.26
2023-05-02T03:53:26.696Z,64.33
2023-05-02T03:55:33.403Z,64.54
2023-05-02T03:57:36.699Z,64.49
2023-05-02T03:59:42.972Z,64.37
2023-05-02T04:01:54.075Z,64.34
2023-05-02T04:04:03.002Z,63.69
2023-05-02T04:06:10.710Z,63.50
2023-05-02T04:08:13.706Z,63.35
2023-05-02T04:10:18.161Z,62.78
2023-05-02T04:12:27.867Z,63.19
2023-05-02T04:14:30.794Z,63.41
2023-05-02T04:16:35.301Z,63.33
2023-05-02T04:18:38.211Z,63.42
2023-05-02T04:20:44.125Z,63.33
2023-05-02T04:22:50.092Z,63.69
2023-05-02T04:24:53.168Z,63.56
2023-05-02T04:26:56.088Z,63.46
2023-05-02T04:28:58.940Z,63.95
2023-05-02T04:31:03.232Z,63.63
2023-05-02T04:33:09.692Z,63.09
2023-05-02T04:35:15.356Z,63.38
2023-05-02T04:37:18.463Z,63.49
2023-05-02T04:39:22.629Z,63.14
2023-05-02T04:41:38.777Z,63.67
2023-05-02T04:43:43.251Z,63.82
2023-05-02T04:45:46.305Z,64.08
2023-05-02T04:47:56.760Z,63.84
2023-05-02T04:50:01.156Z,64.47
2023-05-02T04:52:04.996Z,64.08
2023-05-02T04:54:09.052Z,64.01
2023-05-02T04:56:12.277Z,64.23
2023-05-02T04:58:15.530Z,63.95
2023-05-02T05:00:20.344Z,64.19
2023-05-02T05:02:23.190Z,64.13
2023-05-02T05:04:26.559Z,64.04
2023-05-02T05:06:32.018Z,64.15
2023-05-02T05:08:35.421Z,64.02
2023-05-02T05:10:40.400Z,63.01
2023-05-02T05:12:44.264Z,63.03
2023-05-02T05:14:47.681Z,63.25
2023-05-02T05:16:50.654Z,63.02
2023-05-02T05:18:53.903Z,63.66
2023-05-02T05:20:56.782Z,63.30
2023-05-02T05:23:01.096Z,63.46
2023-05-02T05:25:04.008Z,63.58
2023-05-02T05:27:08.089Z,63.56
2023-05-02T05:29:11.610Z,63.37
2023-05-02T05:31:17.437Z,63.25
2023-05-02T05:33:24.129Z,63.44
2023-05-02T05:35:27.484Z,63.10
2023-05-02T05:37:31.355Z,63.57
2023-05-02T05:39:37.914Z,63.60
2023-05-02T05:41:41.679Z,64.09
2023-05-02T05:43:46.616Z,63.63
2023-05-02T05:45:49.691Z,63.40
2023-05-02T05:47:54.878Z,63.50
2023-05-02T05:49:59.506Z,63.68
2023-05-02T05:52:05.719Z,64.54
2023-05-02T05:54:09.100Z,64.10
2023-05-02T05:56:14.735Z,64.67
2023-05-02T05:58:23.828Z,64.30
2023-05-02T06:00:28.428Z,64.25
2023-05-02T06:02:31.344Z,64.08
2023-05-02T06:04:34.558Z,63.75
2023-05-02T06:06:37.780Z,64.02
2023-05-02T06:08:40.668Z,64.10
2023-05-02T06:10:43.499Z,64.21
2023-05-02T06:12:49.159Z,64.10
2023-05-02T06:14:54.396Z,63.40
2023-05-02T06:17:00.066Z,63.26
2023-05-02T06:19:03.785Z,64.08
2023-05-02T06:21:07.124Z,63.38
2023-05-02T06:23:09.994Z,63.37
2023-05-02T06:25:12.921Z,63.14
2023-05-02T06:27:16.451Z,63.21
2023-05-02T06:29:20.640Z,64.16
2023-05-02T06:31:23.506Z,63.35
2023-05-02T06:33:26.302Z,62.83
2023-05-02T06:35:29.213Z,62.26
2023-05-02T06:37:35.432Z,62.82
2023-05-02T06:39:38.460Z,63.58
2023-05-02T06:41:41.716Z,63.19
2023-05-02T06:43:49.743Z,62.33
2023-05-02T06:45:56.324Z,62.67
2023-05-02T06:47:59.297Z,62.65
2023-05-02T06:50:02.367Z,62.28
2023-05-02T06:52:05.572Z,62.53
2023-05-02T06:54:08.713Z,62.51
2023-05-02T06:56:12.827Z,60.43
2023-05-02T06:58:15.962Z,60.78
2023-05-02T07:00:20.048Z,60.81
2023-05-02T07:02:24.375Z,60.74
2023-05-02T07:04:27.370Z,61.18
2023-05-02T07:06:31.084Z,61.12
2023-05-02T07:08:33.876Z,61.06
2023-05-02T07:10:36.733Z,61.12
2023-05-02T07:12:40.446Z,60.60
2023-05-02T07:14:43.285Z,60.20
2023-05-02T07:16:46.118Z,59.80
2023-05-02T07:18:50.338Z,60.19
2023-05-02T07:20:53.116Z,58.96
2023-05-02T07:22:56.222Z,58.77
2023-05-02T07:24:59.571Z,57.44
2023-05-02T07:27:03.282Z,57.78
2023-05-02T07:29:06.839Z,57.24
2023-05-02T07:31:09.680Z,57.80
2023-05-02T07:33:12.521Z,58.76
2023-05-02T07:35:17.008Z,58.62
2023-05-02T07:37:19.757Z,58.16
2023-05-02T07:39:22.974Z,59.33
2023-05-02T07:41:25.814Z,59.45
2023-05-02T07:43:29.367Z,57.97
2023-05-02T07:45:32.850Z,57.24
2023-05-02T07:47:36.088Z,58.16
2023-05-02T07:49:38.905Z,56.42
2023-05-02T07:51:45.745Z,56.57
2023-05-02T07:53:51.869Z,56.06
2023-05-02T07:55:54.673Z,55.90
2023-05-02T07:57:57.584Z,55.61
2023-05-02T08:00:00.595Z,55.28
2023-05-02T08:02:03.693Z,55.86
2023-05-02T08:04:06.678Z,55.46
2023-05-02T08:06:10.082Z,55.14
2023-05-02T08:08:14.299Z,54.01
2023-05-02T08:10:17.147Z,54.65
2023-05-02T08:12:19.900Z,53.77
2023-05-02T08:14:22.908Z,54.60
2023-05-02T08:16:25.843Z,54.28
2023-05-02T08:18:37.892Z,54.42
2023-05-02T08:20:40.768Z,53.70
2023-05-02T08:22:43.578Z,53.71
2023-05-02T08:24:47.665Z,53.41
2023-05-02T08:26:50.824Z,51.81
2023-05-02T08:28:54.105Z,53.17
2023-05-02T08:30:57.455Z,52.65
2023-05-02T08:33:00.300Z,53.62
2023-05-02T08:35:03.538Z,53.87
2023-05-02T08:37:09.293Z,53.45
2023-05-02T08:39:12.149Z,52.99
2023-05-02T08:41:17.884Z,53.75
2023-05-02T08:43:21.305Z,53.27
2023-05-02T08:45:24.797Z,53.57
2023-05-02T08:47:30.720Z,53.45
2023-05-02T08:49:33.803Z,53.26
2023-05-02T08:51:39.433Z,53.69
2023-05-02T08:53:45.086Z,52.87
2023-05-02T08:55:49.271Z,52.76
2023-05-02T08:57:55.145Z,51.99
2023-05-02T08:59:58.122Z,51.85
2023-05-02T09:02:12.996Z,52.64
2023-05-02T09:04:16.356Z,52.33
2023-05-02T09:06:20.700Z,53.23
2023-05-02T09:08:24.632Z,54.13
2023-05-02T09:10:29.843Z,53.30
2023-05-02T09:12:32.676Z,53.13
2023-05-02T09:14:36.821Z,54.15
2023-05-02T09:16:40.854Z,54.87
2023-05-02T09:18:45.966Z,55.52
2023-05-02T09:20:48.904Z,55.19
2023-05-02T09:22:53.469Z,54.32
2023-05-02T09:24:56.373Z,54.13
2023-05-02T09:27:01.042Z,54.42
2023-05-02T09:29:05.670Z,55.82
2023-05-02T09:31:11.117Z,55.14
2023-05-02T09:33:27.354Z,56.11
2023-05-02T09:35:30.185Z,55.69
2023-05-02T09:37:37.121Z,55.50
2023-05-02T09:39:39.936Z,55.48
2023-05-02T09:41:43.693Z,56.13
2023-05-02T09:43:56.932Z,55.74
2023-05-02T09:46:01.708Z,55.67
2023-05-02T09:48:06.326Z,56.26
2023-05-02T09:50:09.602Z,56.09
2023-05-02T09:52:13.646Z,56.52
2023-05-02T09:54:37.121Z,56.18
2023-05-02T09:56:56.433Z,57.43
2023-05-02T09:59:15.704Z,57.27
2023-05-02T10:01:19.431Z,56.22
2023-05-02T10:03:25.228Z,56.28
2023-05-02T10:05:28.882Z,57.06
2023-05-02T10:07:31.816Z,56.43
2023-05-02T10:09:37.551Z,56.12
2023-05-02T10:11:42.996Z,56.57
2023-05-02T10:13:47.223Z,56.58
2023-05-02T10:15:55.408Z,56.23
2023-05-02T10:18:00.231Z,56.63
2023-05-02T10:20:06.886Z,56.73
2023-05-02T10:22:09.948Z,55.92
2023-05-02T10:24:14.063Z,55.14
2023-05-02T10:26:17.818Z,55.70
2023-05-02T10:28:21.456Z,55.91
2023-05-02T10:30:24.923Z,54.95
2023-05-02T10:32:29.405Z,54.96
2023-05-02T10:34:33.797Z,54.90
2023-05-02T10:36:38.072Z,54.16
2023-05-02T10:38:41.844Z,52.77
2023-05-02T10:40:55.719Z,52.01
2023-05-02T10:43:01.102Z,51.43
2023-05-02T10:45:04.561Z,50.21
2023-05-02T10:47:21.402Z,50.17
2023-05-02T10:49:27.167Z,51.00
2023-05-02T10:51:31.304Z,51.01
2023-05-02T10:53:37.366Z,49.63
2023-05-02T10:55:41.310Z,49.02
2023-05-02T10:58:21.926Z,49.71
2023-05-02T11:00:26.117Z,50.00
2023-05-02T11:02:48.241Z,50.76
2023-05-02T11:05:02.881Z,51.74
2023-05-02T11:07:18.606Z,52.00
2023-05-02T11:09:37.859Z,52.27
2023-05-02T11:11:42.427Z,52.54
2023-05-02T11:13:51.585Z,49.65
2023-05-02T11:15:57.979Z,49.41
2023-05-02T11:18:01.920Z,49.30
2023-05-02T11:20:26.435Z,49.82
2023-05-02T11:22:32.850Z,50.36
2023-05-02T11:24:40.760Z,50.34
2023-05-02T11:26:43.624Z,49.13
2023-05-02T11:28:48.159Z,49.37
2023-05-02T11:30:51.707Z,49.64
2023-05-02T11:33:16.084Z,48.75
2023-05-02T11:35:20.251Z,46.96
2023-05-02T11:37:23.127Z,48.09
2023-05-02T11:39:26.082Z,47.51
2023-05-02T11:41:41.490Z,48.71
2023-05-02T11:43:44.308Z,47.78
2023-05-02T11:45:47.165Z,46.78
2023-05-02T11:47:51.924Z,46.28
2023-05-02T11:49:56.287Z,46.54
2023-05-02T11:52:00.169Z,46.26
2023-05-02T11:54:03.343Z,46.75
2023-05-02T11:56:07.439Z,46.64
2023-05-02T11:58:16.083Z,46.98
2023-05-02T12:00:19.593Z,46.77
2023-05-02T12:02:37.064Z,46.83
2023-05-02T12:04:43.773Z,47.80
2023-05-02T12:06:56.404Z,48.13
2023-05-02T12:09:17.198Z,47.22
2023-05-02T12:11:20.080Z,47.46
2023-05-02T12:13:26.186Z,47.88
2023-05-02T12:15:29.087Z,47.84
2023-05-02T12:17:32.565Z,46.85
2023-05-02T12:19:37.139Z,46.62
2023-05-02T12:21:39.966Z,46.42
2023-05-02T12:23:43.111Z,46.31
2023-05-02T12:25:46.092Z,46.49
2023-05-02T12:28:02.237Z,47.18
2023-05-02T12:30:08.692Z,46.92
2023-05-02T12:32:11.806Z,47.09
2023-05-02T12:34:14.718Z,46.36
2023-05-02T12:36:18.390Z,46.63
2023-05-02T12:38:22.710Z,46.73
2023-05-02T12:40:26.064Z,46.21
2023-05-02T12:42:28.847Z,45.31
2023-05-02T12:44:38.633Z,45.27
2023-05-02T12:47:01.304Z,46.28
2023-05-02T12:49:05.765Z,46.13
2023-05-02T12:51:22.421Z,45.69
2023-05-02T12:53:41.626Z,46.03
2023-05-02T12:55:44.503Z,46.64
2023-05-02T12:57:47.897Z,45.95
2023-05-02T12:59:53.134Z,46.36
2023-05-02T13:01:55.966Z,46.30
2023-05-02T13:04:00.207Z,46.31
2023-05-02T13:06:03.270Z,46.47
2023-05-02T13:08:07.126Z,45.89
2023-05-02T13:10:11.201Z,44.67
2023-05-02T13:12:14.054Z,44.32
2023-05-02T13:14:16.911Z,44.07
2023-05-02T13:16:19.767Z,43.02
2023-05-02T13:18:22.888Z,42.87
2023-05-02T13:20:27.095Z,42.94
2023-05-02T13:22:30.184Z,43.52
2023-05-02T13:24:32.946Z,43.42
2023-05-02T13:26:35.744Z,42.42
2023-05-02T13:28:38.608Z,42.12
2023-05-02T13:30:41.681Z,41.34
2023-05-02T13:32:44.568Z,41.16
2023-05-02T13:34:47.455Z,41.03
2023-05-02T13:36:52.000Z,42.04
2023-05-02T13:38:55.399Z,41.96
2023-05-02T13:40:58.206Z,41.41
2023-05-02T13:43:00.952Z,39.74
2023-05-02T13:45:05.193Z,40.39
2023-05-02T13:47:08.063Z,40.35
2023-05-02T13:49:11.045Z,39.56
2023-05-02T13:51:13.904Z,39.93
2023-05-02T13:53:18.076Z,39.52
2023-05-02T13:55:21.162Z,40.09
2023-05-02T13:57:23.972Z,39.21
2023-05-02T13:59:26.850Z,38.83
2023-05-02T14:01:29.791Z,39.14
2023-05-02T14:03:32.649Z,40.31
2023-05-02T14:05:36.547Z,41.05
2023-05-02T14:07:39.352Z,40.49
2023-05-02T14:09:43.446Z,40.58
2023-05-02T14:11:47.196Z,41.42
2023-05-02T14:13:50.075Z,41.58
2023-05-02T14:15:53.800Z,40.41
2023-05-02T14:17:56.670Z,40.11
2023-05-02T14:19:59.687Z,41.96
2023-05-02T14:22:02.726Z,42.84
2023-05-02T14:24:06.370Z,43.52
2023-05-02T14:26:10.578Z,44.16
2023-05-02T14:28:13.429Z,44.85
2023-05-02T14:30:16.512Z,44.93
2023-05-02T14:32:19.294Z,45.37
2023-05-02T14:34:22.224Z,45.70
2023-05-02T14:36:24.982Z,45.75
2023-05-02T14:38:27.731Z,45.35
2023-05-02T14:40:30.661Z,45.59
2023-05-02T14:42:34.752Z,45.42
2023-05-02T14:44:37.548Z,44.79
2023-05-02T14:46:40.689Z,42.52
2023-05-02T14:48:43.476Z,41.30
2023-05-02T14:50:46.274Z,41.91
2023-05-02T14:52:49.110Z,41.04
2023-05-02T14:54:51.954Z,41.63
2023-05-02T14:56:54.777Z,40.61
2023-05-02T14:58:58.947Z,40.91
2023-05-02T15:01:01.769Z,40.30
2023-05-02T15:03:07.446Z,39.13
2023-05-02T15:05:12.580Z,37.53
2023-05-02T15:07:16.343Z,38.42
2023-05-02T15:09:19.425Z,38.35
2023-05-02T15:11:22.261Z,37.53
2023-05-02T15:13:25.098Z,37.85
2023-05-02T15:15:29.786Z,37.57
2023-05-02T15:17:32.573Z,38.19
2023-05-02T15:19:35.506Z,37.46
2023-05-02T15:21:38.497Z,37.37
2023-05-02T15:23:41.282Z,37.24
2023-05-02T15:25:44.173Z,37.03
2023-05-02T15:27:47.001Z,37.51
2023-05-02T15:29:50.652Z,36.90
2023-05-02T15:31:55.482Z,37.29
2023-05-02T15:33:58.485Z,37.95
2023-05-02T15:36:01.256Z,37.89
2023-05-02T15:38:04.149Z,38.40
2023-05-02T15:40:08.373Z,36.42
2023-05-02T15:42:11.427Z,36.27
2023-05-02T15:44:14.177Z,36.13
2023-05-02T15:46:17.023Z,37.00
2023-05-02T15:48:21.482Z,36.94
2023-05-02T15:50:24.109Z,36.30
2023-05-02T15:52:26.901Z,35.96
2023-05-02T15:54:30.015Z,36.06
2023-05-02T15:56:32.848Z,36.37
2023-05-02T15:58:35.710Z,36.90
2023-05-02T16:00:38.580Z,37.36
2023-05-02T16:02:41.493Z,37.51
2023-05-02T16:04:46.450Z,38.02
2023-05-02T16:06:49.359Z,39.12
2023-05-02T16:08:52.296Z,38.75
2023-05-02T16:10:55.930Z,39.37
2023-05-02T16:12:58.885Z,38.83
2023-05-02T16:15:03.672Z,39.25
2023-05-02T16:17:06.942Z,39.43
2023-05-02T16:19:13.283Z,39.61
2023-05-02T16:21:17.817Z,40.79
2023-05-02T16:23:22.183Z,40.36
2023-05-02T16:25:25.032Z,41.24
2023-05-02T16:27:27.793Z,41.67
2023-05-02T16:29:30.583Z,41.46
2023-05-02T16:31:33.430Z,42.01
2023-05-02T16:33:36.316Z,41.85
2023-05-02T16:35:39.238Z,40.81
2023-05-02T16:37:43.483Z,41.02
2023-05-02T16:39:46.632Z,41.83
2023-05-02T16:41:49.989Z,40.99
2023-05-02T16:43:52.813Z,41.29
2023-05-02T16:46:02.628Z,41.43
2023-05-02T16:48:05.748Z,42.13
2023-05-02T16:50:09.533Z,41.85
2023-05-02T16:52:12.342Z,41.73
2023-05-02T16:54:16.433Z,41.82
2023-05-02T16:56:19.259Z,42.05
2023-05-02T16:58:22.077Z,41.95
2023-05-02T17:00:25.000Z,41.91
2023-05-02T17:02:27.916Z,42.14
2023-05-02T17:04:30.737Z,41.87
2023-05-02T17:06:33.656Z,41.74
2023-05-02T17:08:36.639Z,42.01
2023-05-02T17:10:40.821Z,42.19
2023-05-02T17:12:47.044Z,41.84
2023-05-02T17:14:49.996Z,42.01
2023-05-02T17:16:52.840Z,41.84
2023-05-02T17:18:55.684Z,42.59
2023-05-02T17:20:58.467Z,42.66
2023-05-02T17:23:02.163Z,42.37
2023-05-02T17:25:05.931Z,42.33
2023-05-02T17:27:11.011Z,42.54
2023-05-02T17:29:13.755Z,42.42
2023-05-02T17:31:16.842Z,42.79
2023-05-02T17:33:19.743Z,43.01
2023-05-02T17:35:22.750Z,43.15
2023-05-02T17:37:26.097Z,43.17
2023-05-02T17:39:28.947Z,43.01
2023-05-02T17:41:31.838Z,42.82
2023-05-02T17:43:37.959Z,42.65
2023-05-02T17:45:41.651Z,43.31
2023-05-02T17:47:44.587Z,43.10
2023-05-02T17:49:49.755Z,43.10
2023-05-02T17:51:52.531Z,42.92
2023-05-02T17:53:55.431Z,42.97
2023-05-02T17:55:58.192Z,43.18
2023-05-02T17:58:01.026Z,43.49
2023-05-02T18:00:07.750Z,43.32
2023-05-02T18:02:11.654Z,42.12
2023-05-02T18:04:15.460Z,42.53
2023-05-02T18:06:18.552Z,42.52
2023-05-02T18:08:21.436Z,43.17
2023-05-02T18:10:24.229Z,42.62
2023-05-02T18:12:27.095Z,42.91
2023-05-02T18:14:29.975Z,42.87
2023-05-02T18:16:36.245Z,43.60
2023-05-02T18:18:39.381Z,43.42
2023-05-02T18:20:42.263Z,43.31
2023-05-02T18:22:45.036Z,43.22
2023-05-02T18:24:48.119Z,43.15
2023-05-02T18:26:50.971Z,43.19
2023-05-02T18:28:53.980Z,43.25
2023-05-02T18:30:58.523Z,43.99
2023-05-02T18:33:02.684Z,43.55
2023-05-02T18:35:10.410Z,43.60
2023-05-02T18:37:13.178Z,44.08
2023-05-02T18:39:16.116Z,43.81
2023-05-02T18:41:18.909Z,44.25
2023-05-02T18:43:21.930Z,43.85
2023-05-02T18:45:24.720Z,44.36
2023-05-02T18:47:27.655Z,44.68
2023-05-02T18:49:31.904Z,44.51
2023-05-02T18:51:34.696Z,44.65
2023-05-02T18:53:37.671Z,44.74
2023-05-02T18:55:40.424Z,45.36
2023-05-02T18:57:44.400Z,44.60
2023-05-02T18:59:47.155Z,44.92
2023-05-02T19:01:50.035Z,45.45
2023-05-02T19:03:53.688Z,45.41
2023-05-02T19:05:57.885Z,45.45
2023-05-02T19:08:00.689Z,44.73
2023-05-02T19:10:03.471Z,45.14
2023-05-02T19:12:06.585Z,45.45
2023-05-02T19:14:09.619Z,45.69
2023-05-02T19:16:13.637Z,45.39
2023-05-02T19:18:17.150Z,46.13
2023-05-02T19:20:20.378Z,45.50
2023-05-02T19:22:27.450Z,45.91
2023-05-02T19:24:30.417Z,45.25
2023-05-02T19:26:33.388Z,45.77
2023-05-02T19:28:36.250Z,45.71
2023-05-02T19:30:41.365Z,45.55
2023-05-02T19:32:44.154Z,46.58
2023-05-02T19:34:47.103Z,46.25
2023-05-02T19:36:50.048Z,46.54
2023-05-02T19:38:57.857Z,46.38
2023-05-02T19:41:01.047Z,45.59
2023-05-02T19:43:03.752Z,46.40
2023-05-02T19:45:07.736Z,46.88
2023-05-02T19:47:10.721Z,46.93
2023-05-02T19:49:13.483Z,46.62
2023-05-02T19:51:16.440Z,46.47
2023-05-02T19:53:19.280Z,46.46
2023-05-02T19:55:23.482Z,46.24
2023-05-02T19:57:26.247Z,46.55
2023-05-02T19:59:29.151Z,46.30
2023-05-02T20:01:33.298Z,46.14
2023-05-02T20:03:36.164Z,46.11
2023-05-02T20:05:39.084Z,47.19
2023-05-02T20:07:41.953Z,46.52
2023-05-02T20:09:44.701Z,46.57
2023-05-02T20:11:48.928Z,46.38
2023-05-02T20:13:51.738Z,46.64
2023-05-02T20:15:54.965Z,46.30
2023-05-02T20:17:58.429Z,46.18
2023-05-02T20:20:07.094Z,46.34
2023-05-02T20:22:10.104Z,45.85
2023-05-02T20:24:12.996Z,46.19
2023-05-02T20:26:17.738Z,46.30
2023-05-02T20:28:21.760Z,46.34
2023-05-02T20:30:24.772Z,46.86
2023-05-02T20:32:27.990Z,47.19
2023-05-02T20:34:30.923Z,47.16
2023-05-02T20:36:34.231Z,47.61
2023-05-02T20:38:42.132Z,47.71
2023-05-02T20:40:45.579Z,47.84
2023-05-02T20:42:48.355Z,47.67
2023-05-02T20:44:56.814Z,48.11
2023-05-02T20:46:59.680Z,47.60
2023-05-02T20:49:02.497Z,47.84
2023-05-02T20:51:05.623Z,48.78
2023-05-02T20:53:08.413Z,49.23
2023-05-02T20:55:11.242Z,48.86
2023-05-02T20:57:14.572Z,49.27
2023-05-02T20:59:17.350Z,49.32
2023-05-02T21:01:21.551Z,49.50
2023-05-02T21:03:24.476Z,49.51
2023-05-02T21:05:27.393Z,50.09
2023-05-02T21:07:30.500Z,50.43
2023-05-02T21:09:33.377Z,50.56
2023-05-02T21:11:36.241Z,50.54
2023-05-02T21:13:38.983Z,50.40
2023-05-02T21:15:41.828Z,51.03
2023-05-02T21:17:46.024Z,49.98
2023-05-02T21:19:49.171Z,50.17
2023-05-02T21:21:51.975Z,50.59
2023-05-02T21:23:54.723Z,50.35
2023-05-02T21:25:57.638Z,51.02
2023-05-02T21:28:00.462Z,50.96
2023-05-02T21:30:03.573Z,50.91
2023-05-02T21:32:06.864Z,50.86
2023-05-02T21:34:11.111Z,51.21
2023-05-02T21:36:13.894Z,50.96
2023-05-02T21:38:17.297Z,51.18
2023-05-02T21:40:20.368Z,51.18
2023-05-02T21:42:23.161Z,51.44
2023-05-02T21:44:25.977Z,51.77
2023-05-02T21:46:28.909Z,52.57
2023-05-02T21:48:31.786Z,52.33
2023-05-02T21:50:36.226Z,52.14
2023-05-02T21:52:39.421Z,52.29
2023-05-02T21:54:42.633Z,52.36
2023-05-02T21:56:45.341Z,52.72
2023-05-02T21:58:49.646Z,52.46
2023-05-02T22:00:52.476Z,52.46
2023-05-02T22:02:55.430Z,52.83
2023-05-02T22:04:58.751Z,52.73
2023-05-02T22:07:02.896Z,52.94
2023-05-02T22:09:05.991Z,53.02
2023-05-02T22:11:09.062Z,53.21
2023-05-02T22:13:13.191Z,53.62
2023-05-02T22:15:15.975Z,53.18
2023-05-02T22:17:19.569Z,53.48
2023-05-02T22:19:22.579Z,53.75
2023-05-02T22:21:25.315Z,53.82
2023-05-02T22:23:30.935Z,53.87
2023-05-02T22:25:35.722Z,53.99
2023-05-02T22:27:38.430Z,54.42
2023-05-02T22:29:41.217Z,54.86
2023-05-02T22:31:44.072Z,55.11
2023-05-02T22:33:49.858Z,54.58
2023-05-02T22:35:52.701Z,54.63
2023-05-02T22:37:55.690Z,54.69
2023-05-02T22:40:00.037Z,54.96
2023-05-02T22:42:03.190Z,55.11
2023-05-02T22:44:06.692Z,55.19
2023-05-02T22:46:09.579Z,55.12
2023-05-02T22:48:12.463Z,55.44
2023-05-02T22:50:15.852Z,55.06
2023-05-02T22:52:20.629Z,55.80
2023-05-02T22:54:24.975Z,55.56
2023-05-02T22:56:29.183Z,55.59
2023-05-02T22:58:31.941Z,55.47
2023-05-02T23:00:34.788Z,55.67
2023-05-02T23:02:37.840Z,55.73
2023-05-02T23:04:40.759Z,55.79
2023-05-02T23:06:43.953Z,56.02
2023-05-02T23:08:46.737Z,55.60
2023-05-02T23:10:49.484Z,55.75
2023-05-02T23:12:53.652Z,56.38
2023-05-02T23:15:11.038Z,56.10
2023-05-02T23:17:13.902Z,55.82
2023-05-02T23:19:17.109Z,55.79
2023-05-02T23:21:19.930Z,55.94
2023-05-02T23:23:22.969Z,55.40
2023-05-02T23:25:27.990Z,55.40
2023-05-02T23:27:30.914Z,55.82
2023-05-02T23:29:35.124Z,56.26
2023-05-02T23:31:38.106Z,55.62
2023-05-02T23:33:41.216Z,56.20
2023-05-02T23:35:44.121Z,55.56
2023-05-02T23:37:46.911Z,55.96
2023-05-02T23:39:50.160Z,56.29
2023-05-02T23:41:52.917Z,55.96
2023-05-02T23:43:55.727Z,56.42
2023-05-02T23:45:59.876Z,56.82
2023-05-02T23:48:02.768Z,56.05
2023-05-02T23:50:06.203Z,56.49
2023-05-02T23:52:09.365Z,57.16
2023-05-02T23:54:12.605Z,56.64
2023-05-02T23:56:15.451Z,57.06
2023-05-02T23:58:18.350Z,57.17
